This is the latest recevied weather packets stored in our database for station/object EFHKFMI. If no packets are shown the sender has not sent any weather packets the latest 10 day(s).
| Time | Temp. | Humidity | Pressure | Rain* | Wind** | Luminosity | Snow |
|---|---|---|---|---|---|---|---|
| 1788347074 | 18.33° C | 56% | 1008.1 hPa | 0 mm | - | - | - |
| 1788345873 | 17.78° C | 58% | 1008.1 hPa | 0 mm | - | - | - |
| 1788344673 | 17.78° C | 63% | 1008.1 hPa | 0 mm | - | - | - |
| 1788343473 | 16.67° C | 65% | 1008.2 hPa | 0 mm | - | - | - |
| 1788342273 | 16.11° C | 67% | 1008.2 hPa | 0 mm | - | - | - |
| 1788340863 | 15.56° C | 73% | 1008.3 hPa | 0 mm | - | - | - |
| 1788339874 | 15° C | 79% | 1008.3 hPa | 0 mm | - | - | - |
| 1788338672 | 14.44° C | 79% | 1008.3 hPa | 0 mm | - | - | - |
| 1788337474 | 14.44° C | 81% | 1008.4 hPa | 0 mm | - | - | - |
| 1788336272 | 12.78° C | 87% | 1008.4 hPa | 0 mm | - | - | - |
| 1788335073 | 12.22° C | 91% | 1008.4 hPa | 0 mm | - | - | - |
| 1788333872 | 11.67° C | 95% | 1008.2 hPa | 0 mm | - | - | - |
| 1788332673 | 11.11° C | 97% | 1008.1 hPa | 0 mm | - | - | - |
| 1788331471 | 11.11° C | 98% | 1008 hPa | 0 mm | - | - | - |
| 1788330272 | 11.67° C | 100% | 1007.9 hPa | 0 mm | - | - | - |
| 1788329074 | 11.67° C | 100% | 1007.8 hPa | 0 mm | - | - | - |
| 1788326674 | 11.67° C | 100% | 1007.6 hPa | 0 mm | - | - | - |
| 1788323072 | 11.67° C | 100% | 1007.5 hPa | 0 mm | - | - | - |
| 1788300271 | 13.33° C | 100% | 1007.5 hPa | 0 mm | - | - | - |
| 1788299072 | 13.89° C | 100% | 1007.4 hPa | 0 mm | - | - | - |
| 1788297872 | 14.44° C | 100% | 1007.5 hPa | 0 mm | - | - | - |
| 1788296671 | 13.33° C | 100% | 1007.5 hPa | 0 mm | - | - | - |
| 1788291870 | 15° C | 96% | 1007.5 hPa | 0 mm | - | - | - |
| 1788290671 | 15° C | 97% | 1007.6 hPa | 0 mm | - | - | - |
| 1788289472 | 16.11° C | 94% | 1007.6 hPa | 0 mm | - | - | - |
* Rain latest hour (hover to see other rain measurements)
** Current wind speed in m/s (hover to see current wind gust speed)